Time;durP1;ratioP1;P1;durP2;ratioP2;P2;SDS_P1;SDS_P2;PMS_P1;PMS_P2;Temp;Humidity;BMP_temperature;BMP_pressure;BME280_temperature;BME280_humidity;BME280_pressure;Samples;Min_cycle;Max_cycle;Signal;HPM_P1;HPM_P2
2021/04/24 00:00:59;;;;;;;15.50;6.47;;;;;;;4.82;58.17;96927.41;5047132;28;20541;-77
2021/04/24 00:03:25;;;;;;;12.27;6.53;;;;;;;4.72;58.54;96926.38;5055956;28;20016;-77
2021/04/24 00:05:51;;;;;;;12.73;6.17;;;;;;;4.81;58.84;96925.75;5080704;28;20043;-77
2021/04/24 00:08:17;;;;;;;15.27;6.70;;;;;;;4.79;58.17;96924.19;5069346;28;20037;-77
2021/04/24 00:10:45;;;;;;;13.23;6.33;;;;;;;4.67;59.06;96923.28;5056235;28;20529;-78
2021/04/24 00:13:14;;;;;;;15.27;6.77;;;;;;;4.63;59.11;96932.25;5070000;28;20024;-77
2021/04/24 00:15:42;;;;;;;15.03;6.17;;;;;;;4.60;59.02;96919.44;5068396;28;20455;-77
2021/04/24 00:18:10;;;;;;;13.23;6.07;;;;;;;4.64;58.67;96913.91;5078522;28;20429;-77
2021/04/24 00:20:36;;;;;;;15.30;7.83;;;;;;;4.40;59.86;96919.03;5055843;28;20577;-77
2021/04/24 00:23:05;;;;;;;13.23;6.77;;;;;;;4.25;60.63;96918.25;5066321;28;20458;-77
2021/04/24 00:25:30;;;;;;;15.50;6.87;;;;;;;4.40;59.55;96913.81;5069708;28;21002;-77
2021/04/24 00:27:56;;;;;;;13.80;7.10;;;;;;;4.31;60.59;96922.25;5065125;28;20569;-77
2021/04/24 00:30:23;;;;;;;15.50;6.27;;;;;;;4.32;59.81;96917.84;5058113;28;20020;-77
2021/04/24 00:32:49;;;;;;;13.17;7.07;;;;;;;4.30;60.85;96920.59;5063678;28;20389;-78
2021/04/24 00:35:17;;;;;;;16.70;7.17;;;;;;;4.24;60.45;96921.81;5079272;28;20488;-77
2021/04/24 00:37:42;;;;;;;14.00;7.13;;;;;;;4.25;60.95;96920.03;5073389;28;20490;-77
2021/04/24 00:40:09;;;;;;;13.73;7.20;;;;;;;4.30;60.37;96915.38;5056843;28;21073;-77
2021/04/24 00:42:36;;;;;;;13.07;7.00;;;;;;;3.91;62.42;96918.88;5069056;28;20382;-77
2021/04/24 00:45:04;;;;;;;13.17;7.07;;;;;;;4.09;62.09;96917.66;5059521;28;20463;-76
2021/04/24 00:47:30;;;;;;;15.97;8.00;;;;;;;3.96;62.00;96917.63;5076543;28;20453;-76
2021/04/24 00:49:55;;;;;;;12.97;7.13;;;;;;;4.01;61.92;96920.75;5073775;28;20486;-76
2021/04/24 00:52:21;;;;;;;15.23;7.00;;;;;;;4.07;61.81;96918.69;5076434;28;20116;-76
2021/04/24 00:54:47;;;;;;;12.80;7.13;;;;;;;4.07;61.75;96916.09;5074584;28;20044;-77
2021/04/24 00:57:13;;;;;;;15.13;7.37;;;;;;;4.05;61.47;96907.53;5083937;28;20555;-76
2021/04/24 00:59:40;;;;;;;13.37;6.93;;;;;;;3.96;61.45;96906.41;5066890;28;20466;-76
2021/04/24 01:02:07;;;;;;;14.90;6.63;;;;;;;3.93;61.95;96902.22;5056848;28;20974;-76
2021/04/24 01:04:33;;;;;;;12.70;6.47;;;;;;;3.96;62.06;96899.41;5076591;28;20450;-75
2021/04/24 01:06:59;;;;;;;17.73;7.33;;;;;;;3.85;62.00;96901.88;5048781;28;20463;-77
2021/04/24 01:09:25;;;;;;;14.03;6.40;;;;;;;3.81;62.56;96892.63;5077274;28;20055;-76
2021/04/24 01:11:51;;;;;;;15.53;6.77;;;;;;;3.75;62.73;96893.00;5047417;28;20514;-76
2021/04/24 01:14:16;;;;;;;12.33;6.97;;;;;;;3.62;62.98;96889.53;5087845;28;20470;-76
2021/04/24 01:16:43;;;;;;;14.17;6.77;;;;;;;3.68;63.19;96897.78;5071272;28;20115;-76
2021/04/24 01:19:20;;;;;;;13.00;7.03;;;;;;;3.78;62.79;96890.22;5056089;28;20040;-76
2021/04/24 01:21:47;;;;;;;17.33;6.57;;;;;;;3.81;62.41;96890.00;5059255;28;20467;-76
2021/04/24 01:24:12;;;;;;;11.73;6.47;;;;;;;3.88;62.55;96888.66;5083130;28;20473;-76
2021/04/24 01:26:38;;;;;;;12.50;6.10;;;;;;;3.86;61.47;96882.75;5075045;28;20890;-76
2021/04/24 01:29:04;;;;;;;13.23;6.17;;;;;;;3.70;62.72;96880.31;5069035;28;20090;-76
2021/04/24 01:31:34;;;;;;;13.47;6.13;;;;;;;3.78;62.46;96872.84;5050939;28;20040;-76
2021/04/24 01:34:00;;;;;;;13.53;6.43;;;;;;;3.82;61.83;96878.66;5051684;28;20462;-76
2021/04/24 01:36:26;;;;;;;11.40;6.37;;;;;;;3.74;62.03;96880.94;5088321;28;20469;-76
2021/04/24 01:38:52;;;;;;;15.80;5.70;;;;;;;3.54;62.63;96872.69;5057585;28;20405;-77
2021/04/24 01:41:19;;;;;;;11.17;5.67;;;;;;;3.61;63.12;96869.69;5065905;28;20485;-76
2021/04/24 01:43:55;;;;;;;13.90;6.60;;;;;;;3.61;62.26;96874.88;5069047;28;20554;-77
2021/04/24 01:46:22;;;;;;;12.30;6.30;;;;;;;3.59;62.34;96867.19;5070302;28;20471;-76
2021/04/24 01:48:48;;;;;;;13.70;5.47;;;;;;;3.43;63.35;96877.75;5052376;28;20447;-76
2021/04/24 01:51:14;;;;;;;17.33;7.03;;;;;;;3.41;63.13;96876.19;5067990;28;20507;-76
2021/04/24 01:53:41;;;;;;;12.80;5.40;;;;;;;3.33;63.74;96871.47;5068880;28;20118;-77
2021/04/24 01:56:09;;;;;;;12.83;6.07;;;;;;;3.32;63.64;96872.44;5075139;28;20507;-77
2021/04/24 01:58:35;;;;;;;13.60;6.70;;;;;;;3.22;64.24;96866.13;5076543;28;20454;-77
2021/04/24 02:01:07;;;;;;;14.43;6.47;;;;;;;3.21;64.12;96869.66;5052200;28;21038;-77
2021/04/24 02:03:33;;;;;;;11.13;6.20;;;;;;;3.07;64.12;96867.94;5051171;28;20033;-77
2021/04/24 02:05:59;;;;;;;14.43;5.67;;;;;;;3.00;64.46;96867.50;5062506;28;20505;-77
2021/04/24 02:08:36;;;;;;;14.47;5.90;;;;;;;2.95;64.88;96869.56;5082248;28;20111;-77
2021/04/24 02:11:04;;;;;;;15.83;7.87;;;;;;;2.93;65.26;96862.81;5060251;28;20447;-76
2021/04/24 02:13:34;;;;;;;13.23;6.33;;;;;;;3.01;64.63;96863.13;5054966;28;20525;-77
2021/04/24 02:16:00;;;;;;;14.07;5.83;;;;;;;2.91;65.09;96862.06;5077594;28;20474;-77
2021/04/24 02:18:27;;;;;;;14.07;5.90;;;;;;;2.90;64.74;96861.22;5061404;28;20443;-77
2021/04/24 02:20:53;;;;;;;13.03;6.30;;;;;;;2.93;65.00;96855.00;5057516;28;20470;-77
2021/04/24 02:23:19;;;;;;;11.80;5.50;;;;;;;2.80;64.83;96852.34;5057999;28;20474;-76
2021/04/24 02:25:46;;;;;;;13.17;6.27;;;;;;;2.81;65.36;96860.03;5076802;28;20497;-77
2021/04/24 02:28:14;;;;;;;11.80;6.40;;;;;;;2.71;66.00;96858.94;5070828;28;20447;-77
2021/04/24 02:30:40;;;;;;;12.47;5.90;;;;;;;2.78;65.56;96864.56;5084349;28;21232;-77
2021/04/24 02:33:07;;;;;;;13.67;6.73;;;;;;;2.75;65.96;96849.19;5062319;28;20526;-76
2021/04/24 02:35:45;;;;;;;13.40;6.50;;;;;;;2.62;65.90;96867.31;5073910;28;21065;-76
2021/04/24 02:38:23;;;;;;;13.70;6.77;;;;;;;2.57;66.44;96871.94;5050773;28;21073;-77
2021/04/24 02:40:50;;;;;;;11.03;6.13;;;;;;;2.63;66.75;96868.13;5059324;28;20472;-77
2021/04/24 02:43:16;;;;;;;12.83;6.00;;;;;;;2.58;66.75;96863.22;5059935;28;20454;-77
2021/04/24 02:45:42;;;;;;;15.30;6.23;;;;;;;2.58;66.88;96858.03;5066546;28;20862;-77
2021/04/24 02:48:09;;;;;;;12.63;6.40;;;;;;;2.63;66.23;96858.59;5053770;28;20553;-77
2021/04/24 02:50:35;;;;;;;11.67;5.60;;;;;;;2.69;66.12;96858.22;5058046;28;20463;-76
2021/04/24 02:53:01;;;;;;;15.03;6.50;;;;;;;2.69;65.77;96859.97;5072098;28;20562;-77
2021/04/24 02:55:26;;;;;;;13.10;7.37;;;;;;;2.67;66.11;96854.84;5051224;28;20028;-77
2021/04/24 02:57:52;;;;;;;17.07;7.53;;;;;;;2.74;65.78;96855.31;5067045;28;21091;-77
2021/04/24 03:00:19;;;;;;;18.33;7.60;;;;;;;2.76;65.86;96853.47;5067028;28;20422;-77
2021/04/24 03:02:45;;;;;;;14.13;7.00;;;;;;;2.65;65.67;96854.16;5065529;28;20020;-77
2021/04/24 03:05:17;;;;;;;18.07;7.80;;;;;;;2.55;66.29;96855.63;5064868;28;20815;-77
2021/04/24 03:07:43;;;;;;;17.60;6.90;;;;;;;2.44;67.15;96858.88;5052005;28;20029;-76
2021/04/24 03:10:11;;;;;;;14.93;7.10;;;;;;;2.28;67.47;96858.13;5077814;28;20442;-77
2021/04/24 03:12:37;;;;;;;15.10;6.47;;;;;;;2.21;68.23;96867.22;5064571;28;20477;-77
2021/04/24 03:15:06;;;;;;;15.67;6.10;;;;;;;2.24;68.13;96860.06;5079532;28;20443;-77
2021/04/24 03:17:32;;;;;;;12.10;5.93;;;;;;;2.15;68.53;96859.78;5040211;28;20028;-80
2021/04/24 03:19:57;;;;;;;14.30;6.57;;;;;;;2.16;68.22;96857.13;5069658;28;20463;-77
2021/04/24 03:22:23;;;;;;;12.60;6.43;;;;;;;2.27;68.08;96848.69;5073683;28;20814;-78
2021/04/24 03:24:49;;;;;;;14.20;6.97;;;;;;;2.16;68.56;96851.94;5071516;28;20024;-77
2021/04/24 03:27:14;;;;;;;14.77;6.23;;;;;;;2.20;68.80;96856.00;5061196;28;20044;-77
2021/04/24 03:29:40;;;;;;;14.27;6.37;;;;;;;2.26;67.72;96852.22;5068919;28;20056;-77
2021/04/24 03:32:06;;;;;;;14.77;6.10;;;;;;;2.22;67.41;96845.56;5066226;28;20038;-77
2021/04/24 03:34:33;;;;;;;14.00;5.87;;;;;;;2.11;67.82;96844.44;5057041;28;20023;-77
2021/04/24 03:36:59;;;;;;;13.87;7.13;;;;;;;2.05;68.47;96852.59;5064942;28;20474;-77
2021/04/24 03:39:26;;;;;;;14.27;7.37;;;;;;;1.99;68.89;96849.53;5066151;28;20574;-77
2021/04/24 03:41:52;;;;;;;18.37;8.17;;;;;;;1.95;69.00;96853.22;5060782;28;20462;-77
2021/04/24 03:44:18;;;;;;;15.17;7.67;;;;;;;2.04;68.84;96850.06;5089405;28;20039;-76
2021/04/24 03:46:44;;;;;;;14.97;7.57;;;;;;;2.12;68.67;96851.28;5073096;28;21816;-77
2021/04/24 03:49:10;;;;;;;16.37;7.10;;;;;;;2.09;68.96;96854.06;5050302;28;20386;-77
2021/04/24 03:51:35;;;;;;;15.60;7.23;;;;;;;1.91;69.42;96860.31;5052873;28;20549;-77
2021/04/24 03:54:01;;;;;;;17.13;6.97;;;;;;;1.83;69.62;96859.97;5055985;28;20045;-76
2021/04/24 03:56:27;;;;;;;11.87;6.43;;;;;;;1.84;69.50;96861.63;5073103;28;20409;-77
2021/04/24 03:58:53;;;;;;;15.03;6.93;;;;;;;1.80;69.87;96855.78;5074084;28;20467;-76
2021/04/24 04:01:19;;;;;;;13.53;6.37;;;;;;;1.95;68.91;96863.59;5054312;28;20033;-77
2021/04/24 04:03:44;;;;;;;11.77;6.20;;;;;;;1.84;69.17;96865.03;5082473;28;20536;-79
2021/04/24 04:06:10;;;;;;;14.13;7.10;;;;;;;1.70;70.82;96859.00;5058489;28;20041;-77
2021/04/24 04:08:36;;;;;;;15.77;6.97;;;;;;;1.69;70.57;96859.94;5069800;28;20037;-77
2021/04/24 04:11:01;;;;;;;14.77;6.50;;;;;;;1.57;70.79;96861.47;5066158;28;20059;-78
2021/04/24 04:13:27;;;;;;;14.77;6.30;;;;;;;1.60;70.93;96866.47;5074601;28;20028;-77
2021/04/24 04:15:53;;;;;;;13.37;7.10;;;;;;;1.56;70.56;96868.41;5078295;28;20028;-77
2021/04/24 04:18:23;;;;;;;15.20;7.73;;;;;;;1.41;72.15;96861.53;5064080;28;20434;-76
2021/04/24 04:20:54;;;;;;;12.43;7.83;;;;;;;1.36;72.44;96866.13;5084804;28;20029;-77
2021/04/24 04:23:22;;;;;;;12.60;7.50;;;;;;;1.35;71.79;96867.06;5047094;28;20483;-77
2021/04/24 04:25:49;;;;;;;13.00;7.13;;;;;;;1.49;71.96;96874.88;5080524;28;20431;-77
2021/04/24 04:28:15;;;;;;;11.77;6.43;;;;;;;1.62;70.94;96875.84;5071912;28;20467;-76
2021/04/24 04:30:41;;;;;;;13.97;6.97;;;;;;;1.67;70.92;96879.91;5082207;28;20435;-76
2021/04/24 04:33:08;;;;;;;13.37;6.73;;;;;;;1.68;70.51;96877.25;5070952;28;20029;-77
2021/04/24 04:35:35;;;;;;;16.60;6.73;;;;;;;1.53;71.31;96883.31;5063567;28;20450;-77
2021/04/24 04:38:01;;;;;;;9.97;5.93;;;;;;;1.54;70.77;96880.66;5067289;28;21067;-77
2021/04/24 04:40:27;;;;;;;13.57;7.13;;;;;;;1.50;71.57;96883.47;5056574;28;20978;-77
2021/04/24 04:42:53;;;;;;;11.10;5.93;;;;;;;1.53;71.82;96876.38;5069015;28;20485;-77
2021/04/24 04:45:19;;;;;;;15.10;6.90;;;;;;;1.69;70.61;96878.09;5060551;28;20621;-77
2021/04/24 04:47:46;;;;;;;11.13;6.40;;;;;;;1.62;71.09;96878.44;5078246;28;20093;-77
2021/04/24 04:50:15;;;;;;;13.50;6.80;;;;;;;1.65;71.14;96877.44;5059730;28;20879;-77
2021/04/24 04:52:42;;;;;;;11.23;5.57;;;;;;;1.87;70.13;96877.84;5066913;28;20557;-77
2021/04/24 04:55:09;;;;;;;13.03;5.60;;;;;;;1.96;69.15;96876.47;5063951;28;20449;-77
2021/04/24 04:57:35;;;;;;;12.03;5.60;;;;;;;2.10;68.87;96873.88;5068633;28;20471;-77
2021/04/24 05:00:03;;;;;;;16.50;6.40;;;;;;;2.30;68.58;96879.66;5063342;28;20448;-77
2021/04/24 05:02:29;;;;;;;11.67;5.70;;;;;;;2.46;67.72;96871.78;5086075;28;20447;-77
2021/04/24 05:04:55;;;;;;;13.53;6.40;;;;;;;2.66;66.64;96875.75;5050971;28;21076;-77
2021/04/24 05:07:20;;;;;;;21.43;10.10;;;;;;;2.69;66.51;96875.56;5059681;28;20037;-77
2021/04/24 05:09:46;;;;;;;30.67;11.77;;;;;;;2.82;66.36;96874.69;5059450;28;20054;-77
2021/04/24 05:12:12;;;;;;;16.77;8.53;;;;;;;2.94;65.63;96874.84;5075327;28;20692;-77
2021/04/24 05:14:37;;;;;;;9.87;6.43;;;;;;;2.77;66.46;96871.53;5082501;28;20086;-78
2021/04/24 05:17:04;;;;;;;13.77;6.00;;;;;;;2.49;67.33;96869.81;5068922;28;20039;-77
2021/04/24 05:19:30;;;;;;;12.00;6.23;;;;;;;2.86;65.83;96862.34;5066931;28;20031;-77
2021/04/24 05:21:56;;;;;;;13.60;5.97;;;;;;;3.16;65.22;96858.75;5061132;28;20462;-77
2021/04/24 05:24:23;;;;;;;12.87;6.00;;;;;;;3.31;64.67;96863.75;5073651;28;20504;-77
2021/04/24 05:26:48;;;;;;;11.33;6.37;;;;;;;3.40;64.04;96862.34;5066516;28;20031;-77
2021/04/24 05:29:14;;;;;;;15.17;6.73;;;;;;;3.66;63.24;96859.81;5074011;28;20879;-77
2021/04/24 05:31:40;;;;;;;12.70;6.13;;;;;;;3.95;62.58;96863.06;5075938;28;20032;-77
2021/04/24 05:34:06;;;;;;;15.27;6.50;;;;;;;4.42;61.36;96866.81;5065699;28;20024;-76
2021/04/24 05:36:31;;;;;;;10.93;5.87;;;;;;;4.62;61.20;96868.03;5073198;28;20605;-77
2021/04/24 05:38:57;;;;;;;14.30;7.43;;;;;;;4.74;60.07;96872.41;5071999;28;20116;-77
2021/04/24 05:41:23;;;;;;;19.80;8.83;;;;;;;4.90;59.41;96874.78;5075713;28;20036;-77
2021/04/24 05:43:50;;;;;;;11.77;6.23;;;;;;;4.88;58.96;96887.91;5081123;28;20397;-77
2021/04/24 05:46:17;;;;;;;13.83;5.80;;;;;;;4.55;60.38;96882.44;5079214;28;20461;-77
2021/04/24 05:48:43;;;;;;;12.90;6.30;;;;;;;5.20;57.50;96887.41;5078000;28;20442;-78
2021/04/24 05:51:09;;;;;;;11.80;5.60;;;;;;;5.78;56.40;96880.53;5051214;28;20486;-77
2021/04/24 05:53:34;;;;;;;13.87;6.50;;;;;;;5.81;56.18;96880.31;5065851;28;20442;-78
2021/04/24 05:56:00;;;;;;;9.80;5.40;;;;;;;5.81;55.24;96871.66;5056360;28;20040;-78
2021/04/24 05:58:26;;;;;;;10.77;5.83;;;;;;;5.81;55.63;96875.09;5071459;28;20230;-77
2021/04/24 06:00:51;;;;;;;11.17;5.90;;;;;;;6.25;54.58;96872.72;5078708;28;20059;-78
2021/04/24 06:03:17;;;;;;;14.50;6.80;;;;;;;6.51;54.14;96874.19;5071705;28;20028;-78
2021/04/24 06:05:43;;;;;;;14.23;6.00;;;;;;;5.90;55.60;96881.38;5068688;28;20103;-77
2021/04/24 06:08:09;;;;;;;13.93;4.93;;;;;;;6.06;55.62;96879.31;5075249;28;20108;-77
2021/04/24 06:10:34;;;;;;;13.90;5.10;;;;;;;6.59;54.52;96876.19;5061171;28;20494;-77
2021/04/24 06:13:00;;;;;;;15.00;5.23;;;;;;;6.64;53.27;96875.81;5051439;28;20121;-77
2021/04/24 06:15:26;;;;;;;13.00;5.70;;;;;;;6.50;54.15;96874.28;5071819;28;20111;-78
2021/04/24 06:17:52;;;;;;;13.33;4.97;;;;;;;7.11;51.29;96871.25;5081684;28;20509;-77
2021/04/24 06:20:18;;;;;;;10.80;5.30;;;;;;;6.79;52.70;96875.47;5069932;28;20052;-77
2021/04/24 06:22:44;;;;;;;9.57;4.90;;;;;;;7.76;50.12;96876.41;5077979;28;20051;-78
2021/04/24 06:25:16;;;;;;;11.70;5.70;;;;;;;7.70;49.57;96873.47;5052280;28;20035;-77
2021/04/24 06:27:42;;;;;;;12.13;5.40;;;;;;;8.53;48.50;96872.66;5069649;28;20485;-78
2021/04/24 06:30:10;;;;;;;9.80;5.43;;;;;;;8.57;48.79;96868.81;5062078;28;20052;-78
2021/04/24 06:32:36;;;;;;;15.27;6.03;;;;;;;7.78;49.94;96863.22;5063813;28;20062;-77
2021/04/24 06:35:06;;;;;;;12.47;5.43;;;;;;;8.86;47.75;96868.09;5056888;28;20474;-77
2021/04/24 06:37:32;;;;;;;14.97;6.20;;;;;;;9.65;46.32;96866.28;5050390;28;20395;-78
2021/04/24 06:39:58;;;;;;;19.77;7.77;;;;;;;9.04;47.45;96869.09;5076405;28;20026;-78
2021/04/24 06:42:24;;;;;;;13.93;6.57;;;;;;;9.33;47.93;96863.94;5063288;28;21377;-78
2021/04/24 06:44:50;;;;;;;12.97;6.17;;;;;;;9.86;45.68;96857.47;5069278;28;20028;-78
2021/04/24 06:47:16;;;;;;;14.63;6.07;;;;;;;9.07;47.90;96863.59;5060283;28;20133;-78
2021/04/24 06:49:42;;;;;;;10.97;6.03;;;;;;;9.55;48.14;96860.22;5078740;28;20418;-78
2021/04/24 06:52:08;;;;;;;9.53;5.97;;;;;;;9.45;47.76;96865.44;5077574;28;20032;-78
2021/04/24 06:54:34;;;;;;;13.80;5.93;;;;;;;9.73;47.71;96863.00;5083089;28;20094;-78
2021/04/24 06:57:00;;;;;;;11.73;5.83;;;;;;;9.96;46.31;96854.81;5080551;28;20198;-78
2021/04/24 06:59:26;;;;;;;9.73;5.40;;;;;;;10.76;44.50;96848.25;5074705;28;20016;-78
2021/04/24 07:01:51;;;;;;;10.57;5.57;;;;;;;10.57;43.08;96847.38;5065552;28;20039;-77
2021/04/24 07:04:18;;;;;;;10.10;5.67;;;;;;;11.14;42.38;96843.78;5068291;28;20098;-78
2021/04/24 07:06:44;;;;;;;10.70;5.07;;;;;;;11.30;41.26;96838.69;5071874;28;20031;-78
2021/04/24 07:09:09;;;;;;;11.37;5.50;;;;;;;12.80;38.74;96847.41;5057716;28;20013;-77
2021/04/24 07:11:35;;;;;;;9.63;5.03;;;;;;;12.40;40.37;96832.19;5078791;28;20115;-77
2021/04/24 07:14:01;;;;;;;10.70;5.67;;;;;;;13.48;37.97;96835.97;5067502;28;20115;-78
2021/04/24 07:16:27;;;;;;;9.50;5.50;;;;;;;13.17;38.27;96838.31;5069321;28;20040;-79
2021/04/24 07:18:53;;;;;;;11.47;5.13;;;;;;;12.78;38.57;96843.31;5066832;28;20040;-78
2021/04/24 07:21:18;;;;;;;9.20;5.23;;;;;;;13.06;36.98;96834.16;5069128;28;20028;-78
2021/04/24 07:23:45;;;;;;;8.93;4.43;;;;;;;13.59;35.72;96842.75;5101999;28;20016;-78
2021/04/24 07:26:11;;;;;;;12.60;5.43;;;;;;;14.27;34.61;96834.47;5066894;28;20615;-78
2021/04/24 07:28:37;;;;;;;9.57;4.37;;;;;;;13.83;35.60;96842.75;5059005;28;20041;-77
2021/04/24 07:31:04;;;;;;;9.33;4.60;;;;;;;13.35;36.44;96843.53;5060295;28;20037;-78
2021/04/24 07:33:29;;;;;;;9.17;4.57;;;;;;;14.77;33.98;96835.22;5054726;28;20048;-79
2021/04/24 07:35:55;;;;;;;11.57;5.00;;;;;;;14.83;34.10;96838.03;5055001;28;20496;-77
2021/04/24 07:38:21;;;;;;;12.53;5.03;;;;;;;14.56;33.88;96833.97;5070598;28;20016;-77
2021/04/24 07:40:48;;;;;;;10.40;5.00;;;;;;;15.26;32.80;96830.56;5065898;28;20052;-82
2021/04/24 07:43:14;;;;;;;10.57;5.10;;;;;;;15.84;31.49;96827.56;5058949;28;20115;-78
2021/04/24 07:45:41;;;;;;;9.83;4.57;;;;;;;16.90;29.42;96823.88;5081233;28;20484;-78
2021/04/24 07:48:07;;;;;;;9.80;3.60;;;;;;;16.60;27.56;96818.56;5061282;28;20086;-77
2021/04/24 07:50:34;;;;;;;7.67;3.53;;;;;;;16.72;28.59;96819.75;5071225;28;20055;-78
2021/04/24 07:53:00;;;;;;;6.93;3.70;;;;;;;16.46;27.52;96819.34;5076015;28;20016;-77
2021/04/24 07:55:30;;;;;;;8.20;4.37;;;;;;;17.14;29.68;96820.94;5067989;28;20028;-80
2021/04/24 07:57:56;;;;;;;10.87;4.27;;;;;;;17.65;29.72;96820.88;5070286;28;20105;-78
2021/04/24 08:00:22;;;;;;;7.33;4.70;;;;;;;17.58;29.71;96821.84;5064540;28;20116;-78
2021/04/24 08:02:49;;;;;;;10.57;5.27;;;;;;;18.53;28.73;96821.44;5062413;28;20071;-78
2021/04/24 08:05:16;;;;;;;10.93;4.87;;;;;;;17.52;29.44;96819.94;5054463;28;20028;-79
2021/04/24 08:07:43;;;;;;;8.23;4.40;;;;;;;18.70;25.98;96815.81;5062009;28;20094;-78
2021/04/24 08:10:09;;;;;;;14.33;5.10;;;;;;;17.30;28.07;96819.06;5051540;28;20098;-79
2021/04/24 08:12:36;;;;;;;8.05;4.45;;;;;;;18.70;26.59;96811.31;5043206;28;20580;-78
2021/04/24 08:15:02;;;;;;;13.63;5.65;;;;;;;19.08;25.92;96813.59;5063117;28;20037;-78
2021/04/24 08:17:28;;;;;;;11.30;4.85;;;;;;;18.28;27.20;96825.59;5056386;28;20029;-79
2021/04/24 08:19:53;;;;;;;10.23;4.68;;;;;;;17.96;25.98;96833.06;5070914;28;20521;-78
2021/04/24 08:22:19;;;;;;;8.68;5.05;;;;;;;17.37;24.82;96827.94;5075420;28;20039;-79
2021/04/24 08:24:45;;;;;;;8.13;4.85;;;;;;;18.65;24.98;96815.59;5066797;28;20377;-80
2021/04/24 08:27:11;;;;;;;8.77;4.93;;;;;;;18.65;24.57;96813.75;5081040;28;20107;-78
2021/04/24 08:29:37;;;;;;;11.48;5.50;;;;;;;18.45;24.59;96823.44;5060801;28;20028;-78
2021/04/24 08:32:04;;;;;;;9.60;5.18;;;;;;;19.76;23.87;96809.09;5070177;28;20029;-78
2021/04/24 08:34:30;;;;;;;12.13;5.50;;;;;;;20.05;23.79;96799.06;5079636;28;20056;-79
2021/04/24 08:36:56;;;;;;;9.75;5.82;;;;;;;20.92;22.81;96805.13;5060414;28;20108;-78
2021/04/24 08:39:22;;;;;;;13.48;5.85;;;;;;;20.09;23.58;96799.50;5069374;28;20238;-78
2021/04/24 08:41:48;;;;;;;10.93;5.82;;;;;;;19.73;23.12;96806.84;5069377;28;20037;-78
2021/04/24 08:44:17;;;;;;;10.68;5.55;;;;;;;20.46;23.03;96801.50;5069090;28;20025;-79
2021/04/24 08:46:50;;;;;;;12.93;5.80;;;;;;;21.20;22.37;96791.47;5071083;28;20042;-78
2021/04/24 08:49:22;;;;;;;11.93;6.63;;;;;;;21.23;22.32;96796.41;5054738;28;20017;-79
2021/04/24 08:51:50;;;;;;;10.35;6.07;;;;;;;20.84;21.71;96795.50;5057451;28;20040;-79
2021/04/24 08:54:16;;;;;;;14.52;6.72;;;;;;;20.39;22.24;96798.03;5095137;28;20032;-78
2021/04/24 08:56:42;;;;;;;12.80;6.15;;;;;;;19.75;22.35;96802.13;5052096;28;20035;-78
2021/04/24 08:59:08;;;;;;;10.77;6.22;;;;;;;18.76;22.54;96807.88;5079982;28;20048;-78
2021/04/24 09:01:34;;;;;;;8.15;5.38;;;;;;;19.86;21.54;96798.03;5067671;28;20229;-77
2021/04/24 09:04:00;;;;;;;12.93;5.68;;;;;;;20.33;22.18;96806.88;5059635;28;20024;-77
2021/04/24 09:06:28;;;;;;;10.02;5.82;;;;;;;20.42;21.53;96802.97;5063790;28;20044;-77
2021/04/24 09:08:57;;;;;;;9.75;5.88;;;;;;;19.63;23.23;96795.72;5078962;28;20060;-78
2021/04/24 09:11:24;;;;;;;12.18;5.60;;;;;;;20.41;21.95;96787.94;5068916;28;20059;-78
2021/04/24 09:14:04;;;;;;;10.20;6.03;;;;;;;20.36;22.00;96789.63;5060894;28;20040;-78
2021/04/24 09:16:32;;;;;;;10.93;6.20;;;;;;;21.51;21.12;96784.53;5055287;28;20482;-78
2021/04/24 09:18:58;;;;;;;13.63;5.70;;;;;;;21.21;20.00;96782.41;5052691;28;20033;-78
2021/04/24 09:21:27;;;;;;;10.25;5.55;;;;;;;21.68;21.62;96782.19;5068045;28;20059;-77
2021/04/24 09:23:53;;;;;;;10.02;5.10;;;;;;;21.37;20.44;96781.94;5071447;28;20512;-78
2021/04/24 09:26:27;;;;;;;8.57;4.63;;;;;;;22.20;19.84;96778.31;5061306;28;20040;-74
2021/04/24 09:29:02;;;;;;;9.98;5.53;;;;;;;21.99;19.92;96776.78;5079184;28;20043;-77
2021/04/24 09:31:28;;;;;;;12.88;5.82;;;;;;;22.96;19.05;96768.28;5075616;28;20028;-78
2021/04/24 09:34:00;;;;;;;11.82;6.18;;;;;;;22.18;20.21;96775.03;5080117;28;20039;-78
2021/04/24 09:36:38;;;;;;;9.27;5.70;;;;;;;22.49;19.75;96763.41;5076368;28;20672;-78
2021/04/24 09:39:07;;;;;;;14.77;5.30;;;;;;;22.61;19.15;96763.50;5053452;28;20028;-76
2021/04/24 09:41:36;;;;;;;12.68;9.23;;;;;;;23.10;19.26;96767.06;5071996;28;20013;-79
2021/04/24 09:44:13;;;;;;;13.27;8.57;;;;;;;23.61;18.99;96760.41;5076428;28;20029;-78
2021/04/24 09:46:48;;;;;;;9.70;5.53;;;;;;;24.18;18.41;96760.78;5049272;28;20064;-77
2021/04/24 09:49:21;;;;;;;10.13;6.30;;;;;;;24.52;18.29;96763.75;5082828;28;20056;-77
2021/04/24 09:51:50;;;;;;;11.30;6.15;;;;;;;22.84;18.99;96762.84;5046841;28;20103;-80
2021/04/24 09:54:17;;;;;;;12.02;5.57;;;;;;;22.74;19.69;96760.66;5051621;28;20360;-78
2021/04/24 09:56:57;;;;;;;9.95;6.45;;;;;;;23.65;19.02;96760.78;5069326;28;20637;-77
2021/04/24 09:59:23;;;;;;;12.80;6.13;;;;;;;22.59;19.74;96760.22;5070859;28;20033;-78
2021/04/24 10:02:04;;;;;;;12.88;6.07;;;;;;;21.81;20.68;96764.16;5077788;28;20523;-77
2021/04/24 10:04:30;;;;;;;9.60;5.57;;;;;;;23.34;18.45;96751.94;5054481;28;20103;-79
2021/04/24 10:06:57;;;;;;;11.88;7.90;;;;;;;22.52;19.23;96754.91;5055505;28;20028;-78
2021/04/24 10:09:30;;;;;;;10.00;5.80;;;;;;;22.06;19.13;96753.44;5062166;28;20453;-78
2021/04/24 10:12:02;;;;;;;;;;;;;;;23.51;17.94;96744.06;5067833;28;20052;-78
2021/04/24 10:14:30;;;;;;;7.55;5.32;;;;;;;23.41;18.55;96743.78;5076240;28;19926;-79
2021/04/24 10:16:58;;;;;;;11.68;5.68;;;;;;;22.46;19.83;96738.91;5057011;28;20150;-78
2021/04/24 10:19:26;;;;;;;11.02;6.05;;;;;;;22.55;19.16;96741.06;5067423;28;20036;-78
2021/04/24 10:21:52;;;;;;;11.10;5.68;;;;;;;23.18;17.56;96739.94;5060770;28;20094;-79
2021/04/24 10:24:21;;;;;;;11.65;5.75;;;;;;;23.02;17.93;96735.22;5071075;28;20043;-78
2021/04/24 10:26:46;;;;;;;8.60;5.32;;;;;;;23.27;18.38;96733.22;5060442;28;20027;-78
2021/04/24 10:29:12;;;;;;;12.70;8.48;;;;;;;23.18;19.93;96731.09;5062830;28;20037;-78
2021/04/24 10:31:39;;;;;;;10.70;7.47;;;;;;;24.34;18.54;96727.00;5056527;28;20028;-79
2021/04/24 10:34:06;;;;;;;12.25;5.90;;;;;;;24.14;18.27;96713.91;5078502;28;20123;-78
2021/04/24 10:36:34;;;;;;;9.88;5.50;;;;;;;24.52;17.64;96715.34;5090728;28;20027;-79
2021/04/24 10:39:00;;;;;;;12.93;6.20;;;;;;;23.63;18.86;96728.78;5077640;28;20086;-79
2021/04/24 10:41:33;;;;;;;10.50;6.15;;;;;;;24.77;17.55;96712.38;5061756;28;20029;-79
2021/04/24 10:44:07;;;;;;;12.38;6.30;;;;;;;24.15;17.25;96714.75;5079045;28;20769;-79
2021/04/24 10:46:34;;;;;;;11.70;5.50;;;;;;;22.79;18.92;96717.09;5055664;28;20469;-79
2021/04/24 10:49:19;;;;;;;11.05;5.45;;;;;;;23.91;18.87;96712.06;5060546;28;20030;-79
2021/04/24 10:51:59;;;;;;;9.02;5.63;;;;;;;23.53;17.57;96718.59;5081728;28;20025;-79
2021/04/24 10:54:26;;;;;;;9.85;4.72;;;;;;;24.25;16.83;96712.31;5071719;28;20033;-79
2021/04/24 10:56:53;;;;;;;7.00;4.72;;;;;;;24.78;16.82;96705.13;5079696;28;20021;-79
2021/04/24 10:59:23;;;;;;;11.43;5.25;;;;;;;24.59;15.86;96702.59;5069200;28;20044;-79
2021/04/24 11:02:11;;;;;;;8.13;5.07;;;;;;;23.37;17.31;96708.50;5070972;28;20020;-79
2021/04/24 11:04:46;;;;;;;7.93;5.05;;;;;;;22.39;14.90;96711.34;5066275;28;20035;-78
2021/04/24 11:07:16;;;;;;;12.20;4.75;;;;;;;21.69;15.62;96717.69;5079038;28;20466;-78
2021/04/24 11:09:43;;;;;;;8.80;4.28;;;;;;;22.81;15.73;96702.41;5064211;28;20031;-79
2021/04/24 11:12:13;;;;;;;10.15;5.53;;;;;;;21.15;18.93;96713.69;5066459;28;20032;-78
2021/04/24 11:14:40;;;;;;;8.45;5.65;;;;;;;21.83;18.09;96705.03;5077106;28;20602;-77
2021/04/24 11:17:11;;;;;;;9.15;4.60;;;;;;;23.45;17.37;96696.66;5072396;28;20025;-79
2021/04/24 11:19:42;;;;;;;8.70;5.13;;;;;;;22.46;18.65;96693.34;5069279;28;20036;-78
2021/04/24 11:22:29;;;;;;;11.15;6.00;;;;;;;23.55;17.39;96696.91;5058137;28;20127;-79
2021/04/24 11:25:18;;;;;;;7.55;4.35;;;;;;;23.36;16.35;96692.63;5061772;28;20020;-78
2021/04/24 11:28:08;;;;;;;11.45;4.90;;;;;;;22.38;17.54;96689.09;5066011;28;20032;-79
2021/04/24 11:30:56;;;;;;;6.85;4.78;;;;;;;22.97;17.16;96681.41;5078094;28;20031;-80
2021/04/24 11:33:32;;;;;;;9.43;5.45;;;;;;;23.44;16.13;96674.34;5070560;28;20054;-79